createdAt,value
2023-04-22T00:00:18.298Z,51.93
2023-04-22T00:01:18.284Z,51.75
2023-04-22T00:02:18.175Z,51.80
2023-04-22T00:03:18.297Z,51.87
2023-04-22T00:04:19.153Z,52.18
2023-04-22T00:05:20.719Z,52.14
2023-04-22T00:06:18.202Z,52.17
2023-04-22T00:07:18.044Z,52.58
2023-04-22T00:08:18.848Z,52.86
2023-04-22T00:09:18.213Z,52.64
2023-04-22T00:10:18.174Z,52.47
2023-04-22T00:11:18.039Z,52.61
2023-04-22T00:12:18.009Z,52.61
2023-04-22T00:13:18.207Z,52.65
2023-04-22T00:14:18.172Z,52.43
2023-04-22T00:15:18.078Z,52.10
2023-04-22T00:16:18.042Z,52.08
2023-04-22T00:17:18.093Z,51.78
2023-04-22T00:18:18.242Z,51.95
2023-04-22T00:19:18.042Z,52.54
2023-04-22T00:20:18.059Z,52.35
2023-04-22T00:21:18.146Z,52.42
2023-04-22T00:22:17.960Z,52.76
2023-04-22T00:23:18.076Z,52.92
2023-04-22T00:24:18.023Z,52.70
2023-04-22T00:25:17.955Z,52.34
2023-04-22T00:26:17.958Z,52.09
2023-04-22T00:27:18.052Z,52.35
2023-04-22T00:28:17.971Z,52.36
2023-04-22T00:29:17.921Z,52.46
2023-04-22T00:30:17.991Z,52.10
2023-04-22T00:31:18.062Z,51.96
2023-04-22T00:32:17.909Z,51.70
2023-04-22T00:33:18.090Z,51.60
2023-04-22T00:34:18.161Z,51.57
2023-04-22T00:35:18.326Z,51.60
2023-04-22T00:36:17.864Z,51.64
2023-04-22T00:37:18.045Z,51.51
2023-04-22T00:38:18.074Z,51.54
2023-04-22T00:39:18.179Z,51.40
2023-04-22T00:40:18.166Z,51.13
2023-04-22T00:41:18.116Z,51.09
2023-04-22T00:42:18.015Z,51.33
2023-04-22T00:43:18.052Z,51.70
2023-04-22T00:44:18.192Z,52.13
2023-04-22T00:45:18.278Z,52.19
2023-04-22T00:46:18.249Z,52.10
2023-04-22T00:47:18.154Z,52.40
2023-04-22T00:48:18.171Z,52.55
2023-04-22T00:49:18.274Z,52.20
2023-04-22T00:50:18.232Z,52.10
2023-04-22T00:51:18.292Z,52.03
2023-04-22T00:52:18.237Z,52.39
2023-04-22T00:53:18.258Z,52.73
2023-04-22T00:54:18.302Z,52.64
2023-04-22T00:55:18.292Z,52.38
2023-04-22T00:56:18.327Z,52.10
2023-04-22T00:57:18.420Z,51.90
2023-04-22T00:58:18.381Z,51.90
2023-04-22T00:59:18.670Z,52.04
2023-04-22T01:00:18.509Z,52.11
2023-04-22T01:01:19.234Z,52.24
2023-04-22T01:02:18.734Z,52.28
2023-04-22T01:03:18.736Z,52.10
2023-04-22T01:04:19.417Z,52.37
2023-04-22T01:05:18.651Z,52.33
2023-04-22T01:06:18.518Z,52.22
2023-04-22T01:07:18.564Z,52.60
2023-04-22T01:08:18.641Z,52.84
2023-04-22T01:09:18.667Z,52.44
2023-04-22T01:10:18.635Z,52.25
2023-04-22T01:11:18.700Z,52.89
2023-04-22T01:12:18.664Z,52.87
2023-04-22T01:13:18.787Z,53.12
2023-04-22T01:14:18.818Z,53.59
2023-04-22T01:15:18.767Z,53.63
2023-04-22T01:16:18.768Z,53.94
2023-04-22T01:17:18.880Z,54.50
2023-04-22T01:18:18.822Z,55.01
2023-04-22T01:19:18.717Z,55.06
2023-04-22T01:20:18.680Z,55.64
2023-04-22T01:21:18.786Z,55.83
2023-04-22T01:22:18.734Z,56.04
2023-04-22T01:23:18.634Z,55.93
2023-04-22T01:24:18.645Z,55.42
2023-04-22T01:25:18.653Z,55.19
2023-04-22T01:26:18.789Z,55.18
2023-04-22T01:27:18.734Z,55.05
2023-04-22T01:28:18.603Z,55.36
2023-04-22T01:29:18.603Z,55.60
2023-04-22T01:30:18.671Z,56.17
2023-04-22T01:31:18.592Z,56.35
2023-04-22T01:32:19.014Z,57.00
2023-04-22T01:33:18.721Z,57.24
2023-04-22T01:34:18.841Z,57.34
2023-04-22T01:35:18.939Z,57.52
2023-04-22T01:36:18.842Z,57.82
2023-04-22T01:37:18.877Z,57.91
2023-04-22T01:38:18.948Z,58.18
2023-04-22T01:39:19.079Z,58.15
2023-04-22T01:40:19.188Z,57.98
2023-04-22T01:41:19.288Z,58.01
2023-04-22T01:42:19.099Z,58.07
2023-04-22T01:43:19.187Z,58.07
2023-04-22T01:44:19.348Z,57.92
2023-04-22T01:45:19.325Z,57.87
2023-04-22T01:46:19.337Z,57.82
2023-04-22T01:47:19.302Z,57.69
2023-04-22T01:48:19.386Z,57.67
2023-04-22T01:49:19.212Z,57.76
2023-04-22T01:50:19.267Z,57.69
2023-04-22T01:51:19.338Z,57.46
2023-04-22T01:52:19.314Z,57.11
2023-04-22T01:53:19.151Z,57.08
2023-04-22T01:54:19.308Z,57.29
2023-04-22T01:55:19.125Z,57.26
2023-04-22T01:56:19.293Z,57.20
2023-04-22T01:57:19.190Z,57.35
2023-04-22T01:58:19.296Z,57.64
2023-04-22T01:59:19.310Z,57.75
2023-04-22T02:00:19.410Z,57.96
2023-04-22T02:01:19.546Z,58.20
2023-04-22T02:02:19.575Z,58.25
2023-04-22T02:03:19.520Z,58.72
2023-04-22T02:04:19.505Z,59.06
2023-04-22T02:05:19.448Z,59.45
2023-04-22T02:06:19.447Z,59.45
2023-04-22T02:07:19.506Z,59.35
2023-04-22T02:08:19.502Z,59.40
2023-04-22T02:09:19.565Z,59.57
2023-04-22T02:10:19.814Z,59.64
2023-04-22T02:11:19.609Z,59.91
2023-04-22T02:12:19.543Z,60.17
2023-04-22T02:13:19.763Z,60.18
2023-04-22T02:14:19.727Z,60.41
2023-04-22T02:15:19.901Z,60.43
2023-04-22T02:16:19.801Z,60.15
2023-04-22T02:17:19.599Z,60.23
2023-04-22T02:18:19.584Z,60.07
2023-04-22T02:19:19.666Z,60.07
2023-04-22T02:20:19.625Z,60.27
2023-04-22T02:21:19.573Z,60.34
2023-04-22T02:22:19.633Z,60.30
2023-04-22T02:23:19.534Z,60.28
2023-04-22T02:24:19.602Z,60.26
2023-04-22T02:25:19.698Z,60.13
2023-04-22T02:26:19.627Z,59.80
2023-04-22T02:27:19.509Z,59.61
2023-04-22T02:28:19.520Z,59.52
2023-04-22T02:29:19.500Z,59.29
2023-04-22T02:30:19.594Z,59.27
2023-04-22T02:31:19.562Z,59.35
2023-04-22T02:32:19.656Z,59.39
2023-04-22T02:33:19.448Z,59.54
2023-04-22T02:34:19.499Z,59.68
2023-04-22T02:35:19.523Z,59.77
2023-04-22T02:36:19.522Z,59.65
2023-04-22T02:37:19.558Z,59.60
2023-04-22T02:38:19.528Z,59.73
2023-04-22T02:39:19.497Z,59.94
2023-04-22T02:40:19.585Z,60.03
2023-04-22T02:41:19.567Z,60.01
2023-04-22T02:42:19.609Z,59.95
2023-04-22T02:43:19.529Z,60.11
2023-04-22T02:44:19.582Z,60.40
2023-04-22T02:45:19.618Z,60.76
2023-04-22T02:46:19.652Z,60.95
2023-04-22T02:47:19.668Z,60.98
2023-04-22T02:48:19.640Z,60.78
2023-04-22T02:49:19.686Z,60.85
2023-04-22T02:50:19.862Z,60.95
2023-04-22T02:51:19.781Z,60.80
2023-04-22T02:52:19.814Z,60.82
2023-04-22T02:53:19.815Z,60.71
2023-04-22T02:54:19.798Z,60.65
2023-04-22T02:55:19.906Z,60.74
2023-04-22T02:56:19.885Z,60.61
2023-04-22T02:57:19.930Z,60.46
2023-04-22T02:58:19.925Z,60.27
2023-04-22T02:59:19.981Z,60.06
2023-04-22T03:00:20.017Z,60.22
2023-04-22T03:01:20.147Z,60.37
2023-04-22T03:02:20.137Z,60.47
2023-04-22T03:03:20.199Z,60.98
2023-04-22T03:04:20.159Z,61.20
2023-04-22T03:05:20.216Z,61.31
2023-04-22T03:06:20.178Z,61.44
2023-04-22T03:07:20.219Z,61.67
2023-04-22T03:08:20.248Z,61.87
2023-04-22T03:09:20.283Z,61.87
2023-04-22T03:10:20.299Z,61.55
2023-04-22T03:11:20.371Z,61.46
2023-04-22T03:12:20.369Z,61.29
2023-04-22T03:13:20.361Z,61.15
2023-04-22T03:14:20.395Z,61.20
2023-04-22T03:15:21.704Z,61.11
2023-04-22T03:16:20.598Z,61.23
2023-04-22T03:17:20.486Z,61.20
2023-04-22T03:18:20.525Z,61.14
2023-04-22T03:19:20.605Z,61.11
2023-04-22T03:20:20.650Z,61.38
2023-04-22T03:21:20.579Z,61.29
2023-04-22T03:22:20.607Z,61.22
2023-04-22T03:23:20.652Z,60.93
2023-04-22T03:24:20.670Z,60.83
2023-04-22T03:25:20.697Z,60.67
2023-04-22T03:26:20.657Z,60.51
2023-04-22T03:27:20.692Z,60.54
2023-04-22T03:28:20.707Z,60.49
2023-04-22T03:29:20.817Z,60.26
2023-04-22T03:30:20.875Z,60.22
2023-04-22T03:31:21.322Z,60.66
2023-04-22T03:32:20.915Z,60.73
2023-04-22T03:33:20.875Z,60.56
2023-04-22T03:34:20.820Z,60.47
2023-04-22T03:35:20.829Z,60.28
2023-04-22T03:36:20.847Z,59.96
2023-04-22T03:37:20.896Z,59.67
2023-04-22T03:38:20.881Z,59.76
2023-04-22T03:39:20.898Z,59.66
2023-04-22T03:40:20.927Z,59.77
2023-04-22T03:41:20.895Z,60.00
2023-04-22T03:42:20.902Z,60.14
2023-04-22T03:43:20.927Z,60.27
2023-04-22T03:44:20.966Z,60.52
2023-04-22T03:45:21.325Z,60.69
2023-04-22T03:46:21.053Z,60.67
2023-04-22T03:47:21.101Z,60.83
2023-04-22T03:48:21.110Z,60.84
2023-04-22T03:49:21.215Z,60.92
2023-04-22T03:50:21.166Z,60.72
2023-04-22T03:51:21.292Z,60.68
2023-04-22T03:52:21.249Z,60.64
2023-04-22T03:53:21.338Z,60.58
2023-04-22T03:54:21.383Z,60.55
2023-04-22T03:55:21.480Z,60.55
2023-04-22T03:56:21.539Z,60.64
2023-04-22T03:57:21.538Z,60.69
2023-04-22T03:58:21.555Z,60.42
2023-04-22T03:59:21.604Z,60.31
2023-04-22T04:00:21.749Z,60.54
2023-04-22T04:01:21.740Z,60.68
2023-04-22T04:02:21.767Z,60.89
2023-04-22T04:03:21.870Z,61.07
2023-04-22T04:04:21.801Z,61.03
2023-04-22T04:05:21.873Z,60.94
2023-04-22T04:06:21.779Z,61.08
2023-04-22T04:07:22.752Z,61.53
2023-04-22T04:08:21.896Z,61.70
2023-04-22T04:09:21.875Z,61.71
2023-04-22T04:10:21.948Z,61.75
2023-04-22T04:11:21.959Z,62.04
2023-04-22T04:12:22.014Z,62.34
2023-04-22T04:13:21.987Z,62.34
2023-04-22T04:14:22.059Z,62.13
2023-04-22T04:15:22.077Z,62.03
2023-04-22T04:16:22.276Z,61.97
2023-04-22T04:17:22.214Z,62.15
2023-04-22T04:18:22.228Z,62.17
2023-04-22T04:19:22.197Z,61.87
2023-04-22T04:20:22.284Z,61.91
2023-04-22T04:21:22.318Z,62.12
2023-04-22T04:22:22.276Z,62.03
2023-04-22T04:23:22.309Z,62.08
2023-04-22T04:24:22.336Z,61.79
2023-04-22T04:25:22.502Z,61.82
2023-04-22T04:26:22.499Z,61.91
2023-04-22T04:27:22.459Z,62.06
2023-04-22T04:28:22.512Z,62.17
2023-04-22T04:29:22.596Z,62.03
2023-04-22T04:30:22.566Z,62.01
2023-04-22T04:31:22.603Z,61.92
2023-04-22T04:32:22.722Z,62.11
2023-04-22T04:33:22.563Z,61.74
2023-04-22T04:34:22.608Z,61.31
2023-04-22T04:35:22.606Z,61.19
2023-04-22T04:36:22.638Z,60.99
2023-04-22T04:37:22.712Z,60.77
2023-04-22T04:38:22.610Z,60.50
2023-04-22T04:39:22.641Z,60.12
2023-04-22T04:40:22.675Z,59.82
2023-04-22T04:41:22.799Z,59.59
2023-04-22T04:42:22.783Z,59.32
2023-04-22T04:43:22.715Z,58.95
2023-04-22T04:44:22.788Z,58.53
2023-04-22T04:45:22.794Z,58.16
2023-04-22T04:46:22.884Z,57.94
2023-04-22T04:47:22.867Z,57.75
2023-04-22T04:48:22.887Z,57.67
2023-04-22T04:49:22.864Z,57.67
2023-04-22T04:50:22.937Z,57.69
2023-04-22T04:51:23.038Z,57.43
2023-04-22T04:52:22.960Z,57.09
2023-04-22T04:53:23.005Z,56.86
2023-04-22T04:54:23.009Z,56.74
2023-04-22T04:55:22.971Z,56.93
2023-04-22T04:56:23.207Z,56.81
2023-04-22T04:57:23.056Z,56.81
2023-04-22T04:58:23.047Z,56.97
2023-04-22T04:59:23.148Z,56.84
2023-04-22T05:00:23.112Z,57.03
2023-04-22T05:01:23.254Z,58.05
2023-04-22T05:02:23.666Z,57.77
2023-04-22T05:03:23.339Z,57.35
2023-04-22T05:04:23.483Z,57.22
2023-04-22T05:05:23.272Z,57.36
2023-04-22T05:06:23.314Z,57.46
2023-04-22T05:07:23.242Z,57.36
2023-04-22T05:08:23.266Z,56.83
2023-04-22T05:09:23.340Z,56.74
2023-04-22T05:10:23.336Z,56.59
2023-04-22T05:11:23.452Z,56.86
2023-04-22T05:12:23.435Z,57.00
2023-04-22T05:13:23.478Z,56.71
2023-04-22T05:14:23.552Z,56.37
2023-04-22T05:15:23.588Z,56.17
2023-04-22T05:16:23.672Z,55.67
2023-04-22T05:17:23.698Z,55.49
2023-04-22T05:18:23.672Z,55.76
2023-04-22T05:19:23.696Z,56.28
2023-04-22T05:20:23.697Z,55.59
2023-04-22T05:21:23.776Z,55.99
2023-04-22T05:22:23.800Z,57.14
2023-04-22T05:23:23.874Z,57.04
2023-04-22T05:24:23.926Z,56.31
2023-04-22T05:25:23.941Z,56.95
2023-04-22T05:26:24.082Z,56.77
2023-04-22T05:27:24.041Z,55.89
2023-04-22T05:28:24.115Z,56.07
2023-04-22T05:29:24.153Z,56.07
2023-04-22T05:30:24.183Z,55.96
2023-04-22T05:31:24.215Z,56.24
2023-04-22T05:32:24.505Z,56.68
2023-04-22T05:33:24.266Z,57.12
2023-04-22T05:34:24.337Z,57.01
2023-04-22T05:35:24.388Z,57.05
2023-04-22T05:36:24.443Z,57.43
2023-04-22T05:37:24.473Z,57.76
2023-04-22T05:38:24.518Z,56.95
2023-04-22T05:39:24.514Z,56.00
2023-04-22T05:40:24.650Z,55.95
2023-04-22T05:41:24.587Z,55.85
2023-04-22T05:42:24.624Z,55.87
2023-04-22T05:43:24.589Z,55.62
2023-04-22T05:44:24.623Z,55.66
2023-04-22T05:45:24.627Z,56.05
2023-04-22T05:46:24.731Z,55.94
2023-04-22T05:47:24.715Z,56.11
2023-04-22T05:48:24.705Z,56.66
2023-04-22T05:49:24.759Z,57.39
2023-04-22T05:50:24.778Z,56.18
2023-04-22T05:51:24.799Z,55.29
2023-04-22T05:52:24.793Z,55.17
2023-04-22T05:53:24.804Z,56.07
2023-04-22T05:54:24.836Z,56.36
2023-04-22T05:55:24.950Z,55.61
2023-04-22T05:56:24.948Z,55.63
2023-04-22T05:57:24.956Z,55.63
2023-04-22T05:58:24.987Z,55.86
2023-04-22T05:59:24.988Z,55.56
2023-04-22T06:00:25.008Z,55.60
2023-04-22T06:01:25.096Z,55.45
2023-04-22T06:02:25.332Z,55.71
2023-04-22T06:03:25.360Z,55.50
2023-04-22T06:04:25.463Z,55.23
2023-04-22T06:05:25.286Z,56.01
2023-04-22T06:06:25.248Z,55.84
2023-04-22T06:07:25.243Z,55.59
2023-04-22T06:08:25.213Z,55.82
2023-04-22T06:09:25.237Z,55.86
2023-04-22T06:10:25.324Z,56.28
2023-04-22T06:11:25.295Z,58.09
2023-04-22T06:12:25.287Z,58.73
2023-04-22T06:13:25.321Z,58.07
2023-04-22T06:14:25.343Z,58.35
2023-04-22T06:15:25.379Z,58.39
2023-04-22T06:16:25.414Z,57.92
2023-04-22T06:17:25.436Z,57.94
2023-04-22T06:18:26.521Z,57.26
2023-04-22T06:19:25.661Z,56.72
2023-04-22T06:20:25.565Z,57.52
2023-04-22T06:21:25.605Z,57.17
2023-04-22T06:22:25.712Z,57.48
2023-04-22T06:23:25.720Z,57.05
2023-04-22T06:24:27.312Z,56.32
2023-04-22T06:25:25.760Z,56.18
2023-04-22T06:26:25.804Z,56.19
2023-04-22T06:27:25.879Z,56.11
2023-04-22T06:28:25.928Z,56.71
2023-04-22T06:29:25.946Z,56.30
2023-04-22T06:30:26.001Z,56.32
2023-04-22T06:31:26.009Z,56.46
2023-04-22T06:32:26.042Z,56.33
2023-04-22T06:33:26.090Z,55.98
2023-04-22T06:34:26.105Z,55.73
2023-04-22T06:35:26.158Z,55.51
2023-04-22T06:36:27.951Z,54.74
2023-04-22T06:37:26.110Z,54.70
2023-04-22T06:38:26.268Z,55.55
2023-04-22T06:39:26.139Z,56.53
2023-04-22T06:40:26.103Z,55.19
2023-04-22T06:41:26.135Z,55.14
2023-04-22T06:42:26.118Z,55.04
2023-04-22T06:43:26.080Z,55.12
2023-04-22T06:44:26.080Z,55.40
2023-04-22T06:45:26.106Z,55.45
2023-04-22T06:46:26.115Z,55.32
2023-04-22T06:47:26.106Z,55.66
2023-04-22T06:48:26.054Z,55.33
2023-04-22T06:49:26.097Z,55.92
2023-04-22T06:50:26.077Z,55.71
2023-04-22T06:51:26.113Z,56.29
2023-04-22T06:52:26.028Z,56.06
2023-04-22T06:53:26.046Z,56.76
2023-04-22T06:54:26.045Z,56.79
2023-04-22T06:55:26.021Z,56.61
2023-04-22T06:56:26.000Z,54.75
2023-04-22T06:57:26.029Z,55.71
2023-04-22T06:58:26.079Z,53.44
2023-04-22T06:59:26.007Z,54.67
2023-04-22T07:00:25.963Z,54.15
2023-04-22T07:01:26.026Z,53.87
2023-04-22T07:02:26.077Z,55.12
2023-04-22T07:03:26.192Z,54.23
2023-04-22T07:04:26.822Z,53.73
2023-04-22T07:05:26.087Z,53.09
2023-04-22T07:06:25.977Z,52.69
2023-04-22T07:07:26.048Z,53.16
2023-04-22T07:08:26.014Z,52.75
2023-04-22T07:09:25.964Z,52.93
2023-04-22T07:10:26.136Z,52.39
2023-04-22T07:11:26.023Z,53.84
2023-04-22T07:12:26.172Z,52.25
2023-04-22T07:13:25.878Z,52.08
2023-04-22T07:14:25.939Z,52.17
2023-04-22T07:15:25.922Z,51.39
2023-04-22T07:16:25.960Z,52.27
2023-04-22T07:17:25.969Z,52.70
2023-04-22T07:18:25.876Z,52.47
2023-04-22T07:19:25.930Z,51.39
2023-04-22T07:20:25.976Z,50.27
2023-04-22T07:21:25.948Z,50.45
2023-04-22T07:22:25.953Z,51.18
2023-04-22T07:23:25.956Z,50.64
2023-04-22T07:24:25.996Z,51.36
2023-04-22T07:25:26.048Z,50.44
2023-04-22T07:26:26.089Z,51.37
2023-04-22T07:27:26.104Z,52.10
2023-04-22T07:28:26.224Z,50.35
2023-04-22T07:29:26.148Z,50.96
2023-04-22T07:30:26.134Z,51.81
2023-04-22T07:31:26.272Z,52.24
2023-04-22T07:32:26.305Z,50.39
2023-04-22T07:33:26.292Z,51.19
2023-04-22T07:34:26.349Z,51.49
2023-04-22T07:35:26.517Z,51.25
2023-04-22T07:36:26.599Z,50.98
2023-04-22T07:37:26.565Z,51.28
2023-04-22T07:38:26.744Z,50.83
2023-04-22T07:39:26.688Z,52.55
2023-04-22T07:40:26.663Z,52.87
2023-04-22T07:41:26.613Z,51.61
2023-04-22T07:42:26.610Z,51.71
2023-04-22T07:43:26.708Z,52.34
2023-04-22T07:44:26.854Z,52.66
2023-04-22T07:45:26.704Z,51.26
2023-04-22T07:46:26.716Z,51.36
2023-04-22T07:47:26.805Z,50.28
2023-04-22T07:48:27.419Z,50.86
2023-04-22T07:49:26.897Z,50.01
2023-04-22T07:50:26.835Z,48.93
2023-04-22T07:51:26.918Z,49.53
2023-04-22T07:52:26.892Z,48.86
2023-04-22T07:53:26.982Z,50.16
2023-04-22T07:54:26.977Z,48.76
2023-04-22T07:55:27.040Z,49.17
2023-04-22T07:56:27.182Z,48.01
2023-04-22T07:57:27.263Z,49.18
2023-04-22T07:58:27.119Z,48.33
2023-04-22T07:59:27.302Z,47.85
2023-04-22T08:00:27.238Z,46.35
2023-04-22T08:01:27.341Z,46.89
2023-04-22T08:02:27.423Z,46.06
2023-04-22T08:03:27.498Z,46.48
2023-04-22T08:04:27.606Z,47.81
2023-04-22T08:05:27.606Z,46.37
2023-04-22T08:06:27.482Z,45.94
2023-04-22T08:07:32.947Z,44.10
2023-04-22T08:08:28.434Z,43.29
2023-04-22T08:09:27.363Z,43.95
2023-04-22T08:10:27.450Z,44.69
2023-04-22T08:11:27.573Z,46.03
2023-04-22T08:12:27.901Z,45.38
2023-04-22T08:13:27.304Z,43.52
2023-04-22T08:14:27.422Z,43.23
2023-04-22T08:15:27.384Z,43.44
2023-04-22T08:16:27.534Z,42.25
2023-04-22T08:17:27.447Z,41.29
2023-04-22T08:18:27.340Z,41.73
2023-04-22T08:19:28.152Z,41.65
2023-04-22T08:20:27.528Z,41.63
2023-04-22T08:21:27.417Z,43.14
2023-04-22T08:22:27.481Z,41.52
2023-04-22T08:23:27.415Z,43.22
2023-04-22T08:24:27.862Z,41.66
2023-04-22T08:25:27.290Z,40.67
2023-04-22T08:26:27.253Z,43.13
2023-04-22T08:27:27.282Z,41.70
2023-04-22T08:28:27.408Z,43.46
2023-04-22T08:29:27.225Z,41.91
2023-04-22T08:30:27.247Z,40.95
2023-04-22T08:31:27.221Z,40.55
2023-04-22T08:32:27.278Z,40.06
2023-04-22T08:33:27.461Z,40.66
2023-04-22T08:34:27.275Z,41.31
2023-04-22T08:35:28.054Z,40.79
2023-04-22T08:36:27.221Z,40.86
2023-04-22T08:37:27.145Z,38.77
2023-04-22T08:38:27.352Z,38.55
2023-04-22T08:39:27.174Z,39.02
2023-04-22T08:40:27.341Z,38.37
2023-04-22T08:41:27.112Z,38.28
2023-04-22T08:42:27.201Z,39.21
2023-04-22T08:43:27.105Z,37.35
2023-04-22T08:44:27.175Z,36.17
2023-04-22T08:45:27.096Z,36.41
2023-04-22T08:46:27.142Z,37.06
2023-04-22T08:47:27.188Z,37.22
2023-04-22T08:48:27.092Z,37.01
2023-04-22T08:49:27.093Z,36.11
2023-04-22T08:50:27.177Z,39.68
2023-04-22T08:51:27.190Z,35.71
2023-04-22T08:52:27.156Z,35.91
2023-04-22T08:53:27.058Z,37.67
2023-04-22T08:54:27.042Z,36.91
2023-04-22T08:55:27.046Z,34.66
2023-04-22T08:56:27.046Z,35.15
2023-04-22T08:57:27.060Z,35.64
2023-04-22T08:58:27.100Z,36.42
2023-04-22T08:59:27.097Z,36.06
2023-04-22T09:00:27.210Z,36.26
2023-04-22T09:01:27.320Z,37.04
2023-04-22T09:02:27.980Z,36.28
2023-04-22T09:03:27.439Z,35.51
2023-04-22T09:04:27.412Z,35.58
2023-04-22T09:05:28.024Z,37.14
2023-04-22T09:06:27.403Z,36.11
2023-04-22T09:07:27.590Z,35.72
2023-04-22T09:08:27.515Z,34.08
2023-04-22T09:09:27.529Z,33.72
2023-04-22T09:10:27.528Z,34.49
2023-04-22T09:11:27.615Z,35.05
2023-04-22T09:12:27.593Z,36.02
2023-04-22T09:13:27.751Z,34.92
2023-04-22T09:14:27.712Z,32.99
2023-04-22T09:15:27.784Z,35.17
2023-04-22T09:16:28.445Z,34.19
2023-04-22T09:17:27.806Z,35.16
2023-04-22T09:18:27.884Z,35.67
2023-04-22T09:19:27.929Z,33.83
2023-04-22T09:20:27.891Z,32.34
2023-04-22T09:21:27.897Z,32.21
2023-04-22T09:22:27.889Z,31.70
2023-04-22T09:23:27.969Z,31.62
2023-04-22T09:24:28.916Z,30.37
2023-04-22T09:25:28.168Z,30.65
2023-04-22T09:26:28.058Z,30.61
2023-04-22T09:27:28.132Z,30.63
2023-04-22T09:28:28.167Z,32.07
2023-04-22T09:29:28.269Z,30.07
2023-04-22T09:30:28.328Z,29.38
2023-04-22T09:31:28.327Z,28.91
2023-04-22T09:32:28.485Z,29.26
2023-04-22T09:33:28.500Z,30.28
2023-04-22T09:34:28.491Z,30.41
2023-04-22T09:35:28.419Z,30.55
2023-04-22T09:36:28.454Z,29.66
2023-04-22T09:37:36.036Z,28.13
2023-04-22T09:38:29.588Z,28.31
2023-04-22T09:39:28.610Z,27.38
2023-04-22T09:40:28.652Z,27.04
2023-04-22T09:41:28.497Z,27.89
2023-04-22T09:42:28.558Z,28.39
2023-04-22T09:43:28.477Z,28.21
2023-04-22T09:44:28.475Z,28.01
2023-04-22T09:45:28.515Z,28.08
2023-04-22T09:46:28.719Z,29.32
2023-04-22T09:47:28.457Z,30.07
2023-04-22T09:48:28.442Z,29.61
2023-04-22T09:49:29.489Z,29.00
2023-04-22T09:50:28.429Z,30.41
2023-04-22T09:51:28.567Z,29.14
2023-04-22T09:52:29.365Z,27.98
2023-04-22T09:53:28.485Z,27.60
2023-04-22T09:54:28.517Z,28.33
2023-04-22T09:55:28.368Z,30.13
2023-04-22T09:56:28.453Z,29.11
2023-04-22T09:57:28.373Z,28.74
2023-04-22T09:58:28.427Z,30.96
2023-04-22T09:59:28.378Z,30.55
2023-04-22T10:00:28.483Z,30.75
2023-04-22T10:01:28.604Z,28.76
2023-04-22T10:02:28.714Z,29.13
2023-04-22T10:03:28.690Z,29.43
2023-04-22T10:04:28.839Z,29.05
2023-04-22T10:05:28.699Z,28.10
2023-04-22T10:06:28.807Z,28.69
2023-04-22T10:07:28.879Z,29.65
2023-04-22T10:08:28.810Z,29.65
2023-04-22T10:09:28.878Z,29.01
2023-04-22T10:10:28.955Z,27.68
2023-04-22T10:11:28.932Z,27.74
2023-04-22T10:12:35.341Z,27.75
2023-04-22T10:13:29.896Z,26.92
2023-04-22T10:14:28.940Z,26.88
2023-04-22T10:15:29.023Z,26.94
2023-04-22T10:16:29.015Z,28.00
2023-04-22T10:17:28.974Z,28.00
2023-04-22T10:18:28.903Z,27.35
2023-04-22T10:19:28.934Z,28.25
2023-04-22T10:20:28.848Z,27.11
2023-04-22T10:21:28.914Z,28.31
2023-04-22T10:22:29.017Z,27.61
2023-04-22T10:23:28.846Z,28.52
2023-04-22T10:24:28.908Z,28.01
2023-04-22T10:25:28.839Z,26.95
2023-04-22T10:26:28.838Z,27.10
2023-04-22T10:27:28.809Z,27.35
2023-04-22T10:28:28.822Z,28.12
2023-04-22T10:29:28.845Z,28.15
2023-04-22T10:30:28.780Z,29.94
2023-04-22T10:31:29.031Z,27.24
2023-04-22T10:32:28.845Z,26.45
2023-04-22T10:33:29.012Z,27.37
2023-04-22T10:34:28.812Z,28.66
2023-04-22T10:35:28.967Z,27.14
2023-04-22T10:36:28.931Z,26.56
2023-04-22T10:37:29.008Z,26.65
2023-04-22T10:38:28.973Z,26.00
2023-04-22T10:39:29.060Z,25.62
2023-04-22T10:40:29.009Z,27.05
2023-04-22T10:41:29.072Z,27.03
2023-04-22T10:42:29.098Z,26.22
2023-04-22T10:43:29.203Z,25.84
2023-04-22T10:44:30.004Z,24.70
2023-04-22T10:45:29.241Z,24.60
2023-04-22T10:46:29.256Z,25.46
2023-04-22T10:47:29.373Z,26.05
2023-04-22T10:48:29.262Z,25.12
2023-04-22T10:49:29.388Z,24.02
2023-04-22T10:50:29.394Z,24.71
2023-04-22T10:51:29.520Z,23.72
2023-04-22T10:52:29.481Z,23.71
2023-04-22T10:53:29.598Z,23.85
2023-04-22T10:54:31.852Z,23.87
2023-04-22T10:55:29.442Z,25.53
2023-04-22T10:56:29.516Z,25.54
2023-04-22T10:57:29.570Z,25.58
2023-04-22T10:58:29.504Z,27.09
2023-04-22T10:59:29.473Z,26.46
2023-04-22T11:00:33.163Z,27.81
2023-04-22T11:01:30.459Z,26.42
2023-04-22T11:02:29.530Z,26.29
2023-04-22T11:03:30.294Z,26.21
2023-04-22T11:04:29.411Z,25.92
2023-04-22T11:05:29.442Z,25.66
2023-04-22T11:06:29.431Z,30.17
2023-04-22T11:07:29.448Z,26.43
2023-04-22T11:08:29.439Z,25.65
2023-04-22T11:09:29.394Z,25.23
2023-04-22T11:10:29.420Z,25.38
2023-04-22T11:11:29.444Z,26.16
2023-04-22T11:12:29.380Z,27.78
2023-04-22T11:13:29.381Z,26.88
2023-04-22T11:14:29.454Z,25.25
2023-04-22T11:15:29.384Z,25.00
2023-04-22T11:16:29.385Z,24.62
2023-04-22T11:17:29.368Z,23.98
2023-04-22T11:18:29.407Z,24.37
2023-04-22T11:19:29.374Z,24.88
2023-04-22T11:20:29.409Z,24.36
2023-04-22T11:21:29.449Z,23.39
2023-04-22T11:22:29.460Z,22.99
2023-04-22T11:23:29.475Z,23.64
2023-04-22T11:24:29.579Z,22.75
2023-04-22T11:25:29.584Z,23.97
2023-04-22T11:26:29.637Z,24.20
2023-04-22T11:27:29.630Z,23.05
2023-04-22T11:28:29.683Z,22.33
2023-04-22T11:29:29.764Z,23.47
2023-04-22T11:30:29.792Z,22.55
2023-04-22T11:31:29.874Z,22.39
2023-04-22T11:32:29.979Z,22.44
2023-04-22T11:33:29.908Z,25.00
2023-04-22T11:34:29.910Z,22.25
2023-04-22T11:35:29.962Z,21.31
2023-04-22T11:36:29.951Z,21.12
2023-04-22T11:37:30.002Z,20.37
2023-04-22T11:38:30.065Z,21.89
2023-04-22T11:39:30.146Z,22.59
2023-04-22T11:40:31.764Z,25.82
2023-04-22T11:41:30.303Z,23.50
2023-04-22T11:42:30.342Z,23.97
2023-04-22T11:43:30.335Z,23.27
2023-04-22T11:44:30.495Z,22.50
2023-04-22T11:45:30.514Z,23.19
2023-04-22T11:46:30.657Z,21.86
2023-04-22T11:47:30.620Z,22.81
2023-04-22T11:48:30.565Z,23.91
2023-04-22T11:49:30.625Z,23.18
2023-04-22T11:50:30.701Z,22.94
2023-04-22T11:51:30.641Z,22.08
2023-04-22T11:52:30.647Z,21.95
2023-04-22T11:53:30.708Z,21.73
2023-04-22T11:54:30.755Z,21.82
2023-04-22T11:55:30.844Z,21.54
2023-04-22T11:56:30.884Z,20.97
2023-04-22T11:57:31.770Z,21.07
2023-04-22T11:58:30.923Z,22.00
2023-04-22T11:59:30.943Z,21.06
2023-04-22T12:00:31.005Z,19.90
2023-04-22T12:01:31.075Z,21.24
2023-04-22T12:02:31.222Z,23.24
2023-04-22T12:03:31.564Z,22.69
2023-04-22T12:04:31.160Z,21.47
2023-04-22T12:05:31.320Z,24.04
2023-04-22T12:06:31.217Z,20.85
2023-04-22T12:07:31.375Z,19.89
2023-04-22T12:08:31.331Z,24.46
2023-04-22T12:09:31.381Z,21.40
2023-04-22T12:10:31.452Z,21.25
2023-04-22T12:11:31.462Z,19.98
2023-04-22T12:12:31.510Z,20.23
2023-04-22T12:13:31.502Z,20.69
2023-04-22T12:14:31.528Z,21.14
2023-04-22T12:15:31.598Z,23.71
2023-04-22T12:16:31.631Z,22.61
2023-04-22T12:17:31.673Z,20.43
2023-04-22T12:18:31.703Z,21.20
2023-04-22T12:19:31.712Z,20.41
2023-04-22T12:20:31.778Z,21.10
2023-04-22T12:21:31.844Z,19.69
2023-04-22T12:22:31.878Z,23.63
2023-04-22T12:23:31.887Z,20.39
2023-04-22T12:24:31.912Z,18.48
2023-04-22T12:25:32.032Z,17.36
2023-04-22T12:26:32.054Z,20.08
2023-04-22T12:27:32.030Z,19.45
2023-04-22T12:28:32.039Z,20.46
2023-04-22T12:29:32.098Z,20.35
2023-04-22T12:30:32.074Z,18.33
2023-04-22T12:31:32.237Z,19.14
2023-04-22T12:32:32.140Z,18.41
2023-04-22T12:33:32.151Z,18.96
2023-04-22T12:34:32.138Z,20.03
2023-04-22T12:35:32.174Z,22.50
2023-04-22T12:36:32.253Z,21.29
2023-04-22T12:37:32.277Z,18.50
2023-04-22T12:38:32.329Z,18.13
2023-04-22T12:39:32.390Z,17.54
2023-04-22T12:40:32.325Z,18.02
2023-04-22T12:41:32.452Z,18.50
2023-04-22T12:42:32.384Z,18.22
2023-04-22T12:43:32.415Z,18.07
2023-04-22T12:44:32.493Z,21.50
2023-04-22T12:45:32.469Z,18.16
2023-04-22T12:46:32.587Z,17.84
2023-04-22T12:47:32.531Z,18.45
2023-04-22T12:48:32.511Z,17.96
2023-04-22T12:49:32.526Z,19.80
2023-04-22T12:50:32.547Z,17.53
2023-04-22T12:51:32.616Z,18.59
2023-04-22T12:52:32.636Z,17.60